createdAt,value
2016-12-25T00:00:07.673Z,15.13
2016-12-25T00:01:18.230Z,15.13
2016-12-25T00:02:29.183Z,15.28
2016-12-25T00:03:40.096Z,15.29
2016-12-25T00:04:50.657Z,15.35
2016-12-25T00:06:01.562Z,15.31
2016-12-25T00:07:12.127Z,15.31
2016-12-25T00:08:23.084Z,15.29
2016-12-25T00:09:33.996Z,15.39
2016-12-25T00:10:44.902Z,15.39
2016-12-25T00:11:55.455Z,15.41
2016-12-25T00:13:06.371Z,15.39
2016-12-25T00:14:17.325Z,15.43
2016-12-25T00:15:28.230Z,15.44
2016-12-25T00:16:39.139Z,15.43
2016-12-25T00:17:49.704Z,15.36
2016-12-25T00:19:00.609Z,15.41
2016-12-25T00:20:11.225Z,15.41
2016-12-25T00:21:22.131Z,15.49
2016-12-25T00:22:33.036Z,15.39
2016-12-25T00:23:43.596Z,15.46
2016-12-25T00:24:54.506Z,15.36
2016-12-25T00:26:05.471Z,15.44
2016-12-25T00:27:16.380Z,15.46
2016-12-25T00:28:26.941Z,15.44
2016-12-25T00:29:37.882Z,15.44
2016-12-25T00:30:48.782Z,15.54
2016-12-25T00:31:59.740Z,15.5
2016-12-25T00:33:10.337Z,15.51
2016-12-25T00:34:21.242Z,15.54
2016-12-25T00:35:32.160Z,15.6
2016-12-25T00:36:43.077Z,15.46
2016-12-25T00:37:54.030Z,15.54
2016-12-25T00:39:04.599Z,15.57
2016-12-25T00:40:15.160Z,15.59
2016-12-25T00:41:25.721Z,15.56
2016-12-25T00:42:36.631Z,15.5
2016-12-25T00:43:47.256Z,15.53
2016-12-25T00:44:57.461Z,15.65
2016-12-25T00:46:08.018Z,15.57
2016-12-25T00:47:18.956Z,15.64
2016-12-25T00:48:29.521Z,15.59
2016-12-25T00:49:40.474Z,15.69
2016-12-25T00:50:51.379Z,15.69
2016-12-25T00:52:01.949Z,15.57
2016-12-25T00:53:12.850Z,15.57
2016-12-25T00:54:23.419Z,15.65
2016-12-25T00:55:34.368Z,15.64
2016-12-25T00:56:44.933Z,15.6
2016-12-25T00:57:55.486Z,15.67
2016-12-25T00:59:06.056Z,15.6
2016-12-25T01:00:16.957Z,15.65
2016-12-25T01:01:27.915Z,15.67
2016-12-25T01:02:38.819Z,15.64
2016-12-25T01:03:49.721Z,15.67
2016-12-25T01:05:00.622Z,15.68
2016-12-25T01:06:11.542Z,15.67
2016-12-25T01:07:22.504Z,15.65
2016-12-25T01:08:33.446Z,15.69
2016-12-25T01:09:44.355Z,15.68
2016-12-25T01:10:54.568Z,15.6
2016-12-25T01:12:05.482Z,15.65
2016-12-25T01:13:16.095Z,15.65
2016-12-25T01:14:26.660Z,15.67
2016-12-25T01:15:37.565Z,15.65
2016-12-25T01:16:48.475Z,15.68
2016-12-25T01:17:59.376Z,15.64
2016-12-25T01:19:10.001Z,15.68
2016-12-25T01:20:20.906Z,15.67
2016-12-25T01:21:31.499Z,15.68
2016-12-25T01:22:42.060Z,15.69
2016-12-25T01:23:52.626Z,15.69
2016-12-25T01:25:03.243Z,15.65
2016-12-25T01:26:13.460Z,15.68
2016-12-25T01:27:24.361Z,15.65
2016-12-25T01:28:35.270Z,15.64
2016-12-25T01:29:45.839Z,15.64
2016-12-25T01:30:56.785Z,15.67
2016-12-25T01:32:07.354Z,15.62
2016-12-25T01:33:18.263Z,15.62
2016-12-25T01:34:29.177Z,15.65
2016-12-25T01:35:40.085Z,15.64
2016-12-25T01:36:51.047Z,15.56
2016-12-25T01:38:01.960Z,15.59
2016-12-25T01:39:12.526Z,15.51
2016-12-25T01:40:23.455Z,15.56
2016-12-25T01:41:34.360Z,15.59
2016-12-25T01:42:45.321Z,15.5
2016-12-25T01:43:56.234Z,15.53
2016-12-25T01:45:06.796Z,15.59
2016-12-25T01:46:17.362Z,15.53
2016-12-25T01:47:28.278Z,15.5
2016-12-25T01:48:39.235Z,15.46
2016-12-25T01:49:49.792Z,15.43
2016-12-25T01:51:00.706Z,15.41
2016-12-25T01:52:11.275Z,15.46
2016-12-25T01:53:22.192Z,15.43
2016-12-25T01:54:33.249Z,15.43
2016-12-25T01:55:44.163Z,15.44
2016-12-25T01:56:54.732Z,15.39
2016-12-25T01:58:05.641Z,15.43
2016-12-25T01:59:16.198Z,15.43
2016-12-25T02:00:27.151Z,15.44
2016-12-25T02:01:37.729Z,15.35
2016-12-25T02:02:48.638Z,15.41
2016-12-25T02:03:59.199Z,15.46
2016-12-25T02:05:09.756Z,15.38
2016-12-25T02:06:20.366Z,15.36
2016-12-25T02:07:30.927Z,15.35
2016-12-25T02:08:41.852Z,15.41
2016-12-25T02:09:52.757Z,15.44
2016-12-25T02:11:03.323Z,15.39
2016-12-25T02:12:14.284Z,15.29
2016-12-25T02:13:25.197Z,15.32
2016-12-25T02:14:36.106Z,15.35
2016-12-25T02:15:46.675Z,15.29
2016-12-25T02:16:57.577Z,15.31
2016-12-25T02:18:08.194Z,15.32
2016-12-25T02:19:18.767Z,15.27
2016-12-25T02:20:29.668Z,15.35
2016-12-25T02:21:40.574Z,15.34
2016-12-25T02:22:51.143Z,15.31
2016-12-25T02:24:02.100Z,15.32
2016-12-25T02:25:12.665Z,15.31
2016-12-25T02:26:23.579Z,15.31
2016-12-25T02:27:34.484Z,15.38
2016-12-25T02:28:45.393Z,15.35
2016-12-25T02:29:56.342Z,15.31
2016-12-25T02:31:06.914Z,15.32
2016-12-25T02:32:17.825Z,15.31
2016-12-25T02:33:28.418Z,15.32
2016-12-25T02:34:39.339Z,15.29
2016-12-25T02:35:50.289Z,15.29
2016-12-25T02:37:00.845Z,15.29
2016-12-25T02:38:11.759Z,15.29
2016-12-25T02:39:22.320Z,15.31
2016-12-25T02:40:32.921Z,15.23
2016-12-25T02:41:43.878Z,15.36
2016-12-25T02:42:54.143Z,15.28
2016-12-25T02:44:05.051Z,15.34
2016-12-25T02:45:15.970Z,15.31
2016-12-25T02:46:26.883Z,15.34
2016-12-25T02:47:37.840Z,15.23
2016-12-25T02:48:48.741Z,15.35
2016-12-25T02:49:59.334Z,15.31
2016-12-25T02:51:10.243Z,15.32
2016-12-25T02:52:21.152Z,15.25
2016-12-25T02:53:32.101Z,15.35
2016-12-25T02:54:42.691Z,15.28
2016-12-25T02:55:53.596Z,15.31
2016-12-25T02:57:04.169Z,15.34
2016-12-25T02:58:15.083Z,15.29
2016-12-25T02:59:26.052Z,15.35
2016-12-25T03:00:36.606Z,15.31
2016-12-25T03:01:47.514Z,15.34
2016-12-25T03:02:58.075Z,15.32
2016-12-25T03:04:08.993Z,15.35
2016-12-25T03:05:20.002Z,15.31
2016-12-25T03:06:30.907Z,15.23
2016-12-25T03:07:41.824Z,15.32
2016-12-25T03:08:52.726Z,15.28
2016-12-25T03:10:03.627Z,15.29
2016-12-25T03:11:14.584Z,15.25
2016-12-25T03:12:25.149Z,15.31
2016-12-25T03:13:35.734Z,15.29
2016-12-25T03:14:46.644Z,15.27
2016-12-25T03:15:57.553Z,15.34
2016-12-25T03:17:08.506Z,15.31
2016-12-25T03:18:18.724Z,15.32
2016-12-25T03:19:29.293Z,15.29
2016-12-25T03:20:40.198Z,15.29
2016-12-25T03:21:51.099Z,15.31
2016-12-25T03:23:02.053Z,15.23
2016-12-25T03:24:12.653Z,15.2
2016-12-25T03:25:23.225Z,15.27
2016-12-25T03:26:34.132Z,15.27
2016-12-25T03:27:44.709Z,15.19
2016-12-25T03:28:55.330Z,15.25
2016-12-25T03:30:05.887Z,15.31
2016-12-25T03:31:16.796Z,15.25
2016-12-25T03:32:27.702Z,15.28
2016-12-25T03:33:38.268Z,15.27
2016-12-25T03:34:49.232Z,15.23
2016-12-25T03:36:00.158Z,15.21
2016-12-25T03:37:10.731Z,15.23
2016-12-25T03:38:21.288Z,15.29
2016-12-25T03:39:32.201Z,15.29
2016-12-25T03:40:42.815Z,15.21
2016-12-25T03:41:53.388Z,15.27
2016-12-25T03:43:04.297Z,15.21
2016-12-25T03:44:15.199Z,15.19
2016-12-25T03:45:25.776Z,15.29
2016-12-25T03:46:36.069Z,15.25
2016-12-25T03:47:46.630Z,15.25
2016-12-25T03:48:57.227Z,15.16
2016-12-25T03:50:07.800Z,15.27
2016-12-25T03:51:18.701Z,15.2
2016-12-25T03:52:29.659Z,15.27
2016-12-25T03:53:40.232Z,15.35
2016-12-25T03:54:50.801Z,15.21
2016-12-25T03:56:01.714Z,15.34
2016-12-25T03:57:12.616Z,15.34
2016-12-25T03:58:23.233Z,15.27
2016-12-25T03:59:34.138Z,15.25
2016-12-25T04:00:44.707Z,15.25
2016-12-25T04:01:55.623Z,15.14
2016-12-25T04:03:05.842Z,15.19
2016-12-25T04:04:16.803Z,15.27
2016-12-25T04:05:27.372Z,15.17
2016-12-25T04:06:37.945Z,15.23
2016-12-25T04:07:48.506Z,15.16
2016-12-25T04:08:59.415Z,15.31
2016-12-25T04:10:10.376Z,15.27
2016-12-25T04:11:20.585Z,15.28
2016-12-25T04:12:31.158Z,15.38
2016-12-25T04:13:42.060Z,15.28
2016-12-25T04:14:52.965Z,15.23
2016-12-25T04:16:03.578Z,15.28
2016-12-25T04:17:14.139Z,15.29
2016-12-25T04:18:25.047Z,15.23
2016-12-25T04:19:35.613Z,15.27
2016-12-25T04:20:46.178Z,15.27
2016-12-25T04:21:57.136Z,15.27
2016-12-25T04:23:08.048Z,15.27
2016-12-25T04:24:18.614Z,15.23
2016-12-25T04:25:28.835Z,15.21
2016-12-25T04:26:39.756Z,15.27
2016-12-25T04:27:50.697Z,15.29
2016-12-25T04:29:01.267Z,15.16
2016-12-25T04:30:12.188Z,15.2
2016-12-25T04:31:22.758Z,15.25
2016-12-25T04:32:33.662Z,15.23
2016-12-25T04:33:44.280Z,15.28
2016-12-25T04:34:55.200Z,15.31
2016-12-25T04:36:05.770Z,15.29
2016-12-25T04:37:16.331Z,15.17
2016-12-25T04:38:26.556Z,15.21
2016-12-25T04:39:37.177Z,15.25
2016-12-25T04:40:48.083Z,15.2
2016-12-25T04:41:58.995Z,15.29
2016-12-25T04:43:09.565Z,15.21
2016-12-25T04:44:20.470Z,15.31
2016-12-25T04:45:31.111Z,15.27
2016-12-25T04:46:41.745Z,15.23
2016-12-25T04:47:52.654Z,15.23
2016-12-25T04:49:03.223Z,15.23
2016-12-25T04:50:14.132Z,15.16
2016-12-25T04:51:25.086Z,15.14
2016-12-25T04:52:35.651Z,15.21
2016-12-25T04:53:46.556Z,15.23
2016-12-25T04:54:56.769Z,15.29
2016-12-25T04:56:07.675Z,15.21
2016-12-25T04:57:18.287Z,15.21
2016-12-25T04:58:29.193Z,15.29
2016-12-25T04:59:39.790Z,15.27
2016-12-25T05:00:50.347Z,15.32
2016-12-25T05:02:01.269Z,15.28
2016-12-25T05:03:12.226Z,15.27
2016-12-25T05:04:22.791Z,15.28
2016-12-25T05:05:33.701Z,15.28
2016-12-25T05:06:44.281Z,15.28
2016-12-25T05:07:54.846Z,15.16
2016-12-25T05:09:05.808Z,15.23
2016-12-25T05:10:16.713Z,15.25
2016-12-25T05:11:27.618Z,15.28
2016-12-25T05:12:38.176Z,15.25
2016-12-25T05:13:49.092Z,15.19
2016-12-25T05:15:00.102Z,15.32
2016-12-25T05:16:10.663Z,15.29
2016-12-25T05:17:21.600Z,15.19
2016-12-25T05:18:32.161Z,15.27
2016-12-25T05:19:43.071Z,15.28
2016-12-25T05:20:54.024Z,15.2
2016-12-25T05:22:04.581Z,15.23
2016-12-25T05:23:15.147Z,15.29
2016-12-25T05:24:26.048Z,15.23
2016-12-25T05:25:36.961Z,15.29
2016-12-25T05:26:47.606Z,15.17
2016-12-25T05:27:58.160Z,15.28
2016-12-25T05:29:09.076Z,15.28
2016-12-25T05:30:19.982Z,15.27
2016-12-25T05:31:30.551Z,15.25
2016-12-25T05:32:41.156Z,15.27
2016-12-25T05:33:51.729Z,15.25
2016-12-25T05:35:02.643Z,15.19
2016-12-25T05:36:13.548Z,15.34
2016-12-25T05:37:24.473Z,15.2
2016-12-25T05:38:35.086Z,15.28
2016-12-25T05:39:45.992Z,15.11
2016-12-25T05:40:56.549Z,15.27
2016-12-25T05:42:07.486Z,15.32
2016-12-25T05:43:18.047Z,15.32
2016-12-25T05:44:29.000Z,15.23
2016-12-25T05:45:39.566Z,15.23
2016-12-25T05:46:50.498Z,15.19
2016-12-25T05:48:01.400Z,15.13
2016-12-25T05:49:12.349Z,15.21
2016-12-25T05:50:23.303Z,15.32
2016-12-25T05:51:33.875Z,15.2
2016-12-25T05:52:44.781Z,15.21
2016-12-25T05:53:55.346Z,15.21
2016-12-25T05:55:05.919Z,15.32
2016-12-25T05:56:16.536Z,15.19
2016-12-25T05:57:27.445Z,15.27
2016-12-25T05:58:38.027Z,15.23
2016-12-25T05:59:48.932Z,15.25
2016-12-25T06:00:59.525Z,15.28
2016-12-25T06:02:10.470Z,15.19
2016-12-25T06:03:21.379Z,15.29
2016-12-25T06:04:31.949Z,15.2
2016-12-25T06:05:42.522Z,15.23
2016-12-25T06:06:53.439Z,15.2
2016-12-25T06:08:04.404Z,15.21
2016-12-25T06:09:15.325Z,15.17
2016-12-25T06:10:26.223Z,15.28
2016-12-25T06:11:37.136Z,15.28
2016-12-25T06:12:47.701Z,15.11
2016-12-25T06:13:58.654Z,15.23
2016-12-25T06:15:09.219Z,15.14
2016-12-25T06:16:20.121Z,15.2
2016-12-25T06:17:31.038Z,15.17
2016-12-25T06:18:41.955Z,15.17
2016-12-25T06:19:52.564Z,15.17
2016-12-25T06:21:03.133Z,15.25
2016-12-25T06:22:13.695Z,15.19
2016-12-25T06:23:24.608Z,15.19
2016-12-25T06:24:35.553Z,15.2
2016-12-25T06:25:46.534Z,15.25
2016-12-25T06:26:57.447Z,15.32
2016-12-25T06:28:08.356Z,15.28
2016-12-25T06:29:18.589Z,15.17
2016-12-25T06:30:28.823Z,15.19
2016-12-25T06:31:39.776Z,15.19
2016-12-25T06:32:50.338Z,15.27
2016-12-25T06:34:00.918Z,15.14
2016-12-25T06:35:11.483Z,15.27
2016-12-25T06:36:22.401Z,15.13
2016-12-25T06:37:33.018Z,15.27
2016-12-25T06:38:43.587Z,15.2
2016-12-25T06:39:54.500Z,15.21
2016-12-25T06:41:05.457Z,15.2
2016-12-25T06:42:16.359Z,15.2
2016-12-25T06:43:26.624Z,15.25
2016-12-25T06:44:37.533Z,15.2
2016-12-25T06:45:48.102Z,15.13
2016-12-25T06:46:58.667Z,15.16
2016-12-25T06:48:09.584Z,15.29
2016-12-25T06:49:20.190Z,15.28
2016-12-25T06:50:31.107Z,15.2
2016-12-25T06:51:42.020Z,15.16
2016-12-25T06:52:52.933Z,15.28
2016-12-25T06:54:03.498Z,15.23
2016-12-25T06:55:14.112Z,15.21
2016-12-25T06:56:24.700Z,15.25
2016-12-25T06:57:35.262Z,15.25
2016-12-25T06:58:45.831Z,15.23
2016-12-25T06:59:56.764Z,15.28
2016-12-25T07:01:07.718Z,15.21
2016-12-25T07:02:18.658Z,15.19
2016-12-25T07:03:29.576Z,15.14
2016-12-25T07:04:40.133Z,15.19
2016-12-25T07:05:51.038Z,15.25
2016-12-25T07:07:02.011Z,15.16
2016-12-25T07:08:12.928Z,15.14
2016-12-25T07:09:23.834Z,15.21
2016-12-25T07:10:34.747Z,15.14
2016-12-25T07:11:45.656Z,15.27
2016-12-25T07:12:55.933Z,15.17
2016-12-25T07:14:06.494Z,15.16
2016-12-25T07:15:17.404Z,15.14
2016-12-25T07:16:27.972Z,15.16
2016-12-25T07:17:38.533Z,15.1
2016-12-25T07:18:49.155Z,15.1
2016-12-25T07:20:00.060Z,15.16
2016-12-25T07:21:10.965Z,15.13
2016-12-25T07:22:21.882Z,15.2
2016-12-25T07:23:32.788Z,15.19
2016-12-25T07:24:43.405Z,15.27
2016-12-25T07:25:53.990Z,15.2
2016-12-25T07:27:04.915Z,15.19
2016-12-25T07:28:15.476Z,15.11
2016-12-25T07:29:26.041Z,15.2
2016-12-25T07:30:36.662Z,15.21
2016-12-25T07:31:47.240Z,15.13
2016-12-25T07:32:57.793Z,15.21
2016-12-25T07:34:08.014Z,15.2
2016-12-25T07:35:18.923Z,15.17
2016-12-25T07:36:29.564Z,15.2
2016-12-25T07:37:40.125Z,15.13
2016-12-25T07:38:51.039Z,15.23
2016-12-25T07:40:01.595Z,15.28
2016-12-25T07:41:12.517Z,15.13
2016-12-25T07:42:23.466Z,15.21
2016-12-25T07:43:34.383Z,15.16
2016-12-25T07:44:45.304Z,15.11
2016-12-25T07:45:56.209Z,15.14
2016-12-25T07:47:07.118Z,15.25
2016-12-25T07:48:17.740Z,15.29
2016-12-25T07:49:28.673Z,15.28
2016-12-25T07:50:39.238Z,15.17
2016-12-25T07:51:49.455Z,15.16
2016-12-25T07:53:00.020Z,15.27
2016-12-25T07:54:10.996Z,15.16
2016-12-25T07:55:21.563Z,15.28
2016-12-25T07:56:32.476Z,15.16
2016-12-25T07:57:43.045Z,15.19
2016-12-25T07:58:53.258Z,15.29
2016-12-25T08:00:03.868Z,15.32
2016-12-25T08:01:14.780Z,15.34
2016-12-25T08:02:25.686Z,15.28
2016-12-25T08:03:36.595Z,15.23
2016-12-25T08:04:47.176Z,15.28
2016-12-25T08:05:57.793Z,15.16
2016-12-25T08:07:08.702Z,15.19
2016-12-25T08:08:19.259Z,15.2
2016-12-25T08:09:30.177Z,15.13
2016-12-25T08:10:41.086Z,15.27
2016-12-25T08:11:51.698Z,15.19
2016-12-25T08:13:02.612Z,15.16
2016-12-25T08:14:13.521Z,15.25
2016-12-25T08:15:24.422Z,15.28
2016-12-25T08:16:34.991Z,15.16
2016-12-25T08:17:45.948Z,15.27
2016-12-25T08:18:56.861Z,15.19
2016-12-25T08:20:07.426Z,15.2
2016-12-25T08:21:17.991Z,15.14
2016-12-25T08:22:28.900Z,15.13
2016-12-25T08:23:39.518Z,15.16
2016-12-25T08:24:50.091Z,15.35
2016-12-25T08:26:00.996Z,15.21
2016-12-25T08:27:11.557Z,15.16
2016-12-25T08:28:22.126Z,15.21
2016-12-25T08:29:32.739Z,15.19
2016-12-25T08:30:43.304Z,15.23
2016-12-25T08:31:54.213Z,15.29
2016-12-25T08:33:04.778Z,15.17
2016-12-25T08:34:15.683Z,15.21
2016-12-25T08:35:25.956Z,15.2
2016-12-25T08:36:36.173Z,15.16
2016-12-25T08:37:46.742Z,15.21
2016-12-25T08:38:57.651Z,15.2
2016-12-25T08:40:08.232Z,15.11
2016-12-25T08:41:18.837Z,15.14
2016-12-25T08:42:29.754Z,15.19
2016-12-25T08:43:40.323Z,15.2
2016-12-25T08:44:50.884Z,15.19
2016-12-25T08:46:01.790Z,15.2
2016-12-25T08:47:12.399Z,15.21
2016-12-25T08:48:23.312Z,15.23
2016-12-25T08:49:33.881Z,15.14
2016-12-25T08:50:44.790Z,15.21
2016-12-25T08:51:55.691Z,15.21
2016-12-25T08:53:06.657Z,15.25
2016-12-25T08:54:17.230Z,15.21
2016-12-25T08:55:27.796Z,15.14
2016-12-25T08:56:38.708Z,15.27
2016-12-25T08:57:49.265Z,15.28
2016-12-25T08:58:59.907Z,15.29
2016-12-25T09:00:10.824Z,15.32
2016-12-25T09:01:21.721Z,15.2
2016-12-25T09:02:32.278Z,15.28
2016-12-25T09:03:42.847Z,15.25
2016-12-25T09:04:53.804Z,15.32
2016-12-25T09:06:04.717Z,15.27
2016-12-25T09:07:15.279Z,15.38
2016-12-25T09:08:26.212Z,15.34
2016-12-25T09:09:37.121Z,15.28
2016-12-25T09:10:48.078Z,15.43
2016-12-25T09:11:58.644Z,15.38
2016-12-25T09:13:09.565Z,15.35
2016-12-25T09:14:20.474Z,15.35
2016-12-25T09:15:31.043Z,15.34
2016-12-25T09:16:42.008Z,15.41
2016-12-25T09:17:52.926Z,15.39
2016-12-25T09:19:03.839Z,15.46
2016-12-25T09:20:14.752Z,15.44
2016-12-25T09:21:25.661Z,15.35
2016-12-25T09:22:36.274Z,15.38
2016-12-25T09:23:46.852Z,15.43
2016-12-25T09:24:57.413Z,15.59
2016-12-25T09:26:08.322Z,15.47
2016-12-25T09:27:18.887Z,15.57
2016-12-25T09:28:29.508Z,15.6
2016-12-25T09:29:40.414Z,15.46
2016-12-25T09:30:51.327Z,15.53
2016-12-25T09:32:01.920Z,15.6
2016-12-25T09:33:12.825Z,15.69
2016-12-25T09:34:23.463Z,15.59
2016-12-25T09:35:34.376Z,15.67
2016-12-25T09:36:45.285Z,15.6
2016-12-25T09:37:56.218Z,15.65
2016-12-25T09:39:06.788Z,15.67
2016-12-25T09:40:17.745Z,15.68
2016-12-25T09:41:28.618Z,15.68
2016-12-25T09:42:39.563Z,15.71
2016-12-25T09:43:50.956Z,15.78
2016-12-25T09:45:02.578Z,15.83
2016-12-25T09:46:15.371Z,15.82
2016-12-25T09:47:25.584Z,15.75
2016-12-25T09:48:36.402Z,15.75
2016-12-25T09:49:47.295Z,15.75
2016-12-25T09:50:58.464Z,15.84
2016-12-25T09:52:09.501Z,15.83
2016-12-25T09:53:20.062Z,15.78
2016-12-25T09:54:30.868Z,15.9
2016-12-25T09:55:42.553Z,15.96
2016-12-25T09:56:53.486Z,15.92
2016-12-25T09:58:04.443Z,15.9
2016-12-25T09:59:15.028Z,15.93
2016-12-25T10:00:27.243Z,16.01
2016-12-25T10:01:38.163Z,15.9
2016-12-25T10:02:49.844Z,15.96
2016-12-25T10:04:01.545Z,16.01
2016-12-25T10:05:13.530Z,16.04
2016-12-25T10:06:24.355Z,15.96
2016-12-25T10:07:34.961Z,15.97
2016-12-25T10:08:46.754Z,16.02
2016-12-25T10:09:57.091Z,15.97
2016-12-25T10:11:08.564Z,15.96
2016-12-25T10:12:19.161Z,16.01
2016-12-25T10:13:29.790Z,16.08
2016-12-25T10:14:40.543Z,16.12
2016-12-25T10:15:50.988Z,16.07
2016-12-25T10:17:01.854Z,16.05
2016-12-25T10:18:12.767Z,16.21
2016-12-25T10:19:23.336Z,16.21
2016-12-25T10:20:34.025Z,16.14
2016-12-25T10:21:44.542Z,16.2
2016-12-25T10:22:55.408Z,16.21
2016-12-25T10:24:07.497Z,16.17
2016-12-25T10:25:18.114Z,16.28
2016-12-25T10:26:29.323Z,16.15
2016-12-25T10:27:40.172Z,16.3
2016-12-25T10:28:52.277Z,16.28
2016-12-25T10:30:02.978Z,16.2
2016-12-25T10:31:13.232Z,16.21
2016-12-25T10:32:23.497Z,16.27
2016-12-25T10:33:34.414Z,16.15
2016-12-25T10:34:45.324Z,16.25
2016-12-25T10:35:55.912Z,16.3
2016-12-25T10:37:06.826Z,16.25
2016-12-25T10:38:17.783Z,16.24
2016-12-25T10:39:28.344Z,16.27
2016-12-25T10:40:39.257Z,16.23
2016-12-25T10:41:50.167Z,16.27
2016-12-25T10:43:00.388Z,16.23
2016-12-25T10:44:11.157Z,16.21
2016-12-25T10:45:21.714Z,16.27
2016-12-25T10:46:32.288Z,16.3
2016-12-25T10:47:43.197Z,16.24
2016-12-25T10:48:53.762Z,16.21
2016-12-25T10:50:04.031Z,16.31
2016-12-25T10:51:14.945Z,16.2
2016-12-25T10:52:25.870Z,16.3
2016-12-25T10:53:36.431Z,16.21
2016-12-25T10:54:46.992Z,16.24
2016-12-25T10:55:57.602Z,16.33
2016-12-25T10:57:08.535Z,16.33
2016-12-25T10:58:19.436Z,16.41
2016-12-25T10:59:30.360Z,16.33
2016-12-25T11:00:41.274Z,16.27
2016-12-25T11:01:52.263Z,16.3
2016-12-25T11:03:02.829Z,16.33
2016-12-25T11:04:13.387Z,16.33
2016-12-25T11:05:24.303Z,16.3
2016-12-25T11:06:35.205Z,16.35
2016-12-25T11:07:46.174Z,16.28
2016-12-25T11:08:57.083Z,16.33
2016-12-25T11:10:07.992Z,16.33
2016-12-25T11:11:18.893Z,16.34
2016-12-25T11:12:29.463Z,16.3
2016-12-25T11:13:40.428Z,16.31
2016-12-25T11:14:50.989Z,16.27
2016-12-25T11:16:01.899Z,16.34
2016-12-25T11:17:12.808Z,16.34
2016-12-25T11:18:23.545Z,16.34
2016-12-25T11:19:34.510Z,16.31
2016-12-25T11:20:45.116Z,16.3
2016-12-25T11:21:56.033Z,16.3
2016-12-25T11:23:06.994Z,16.23
2016-12-25T11:24:17.031Z,16.09
2016-12-25T11:25:27.996Z,15.89
2016-12-25T11:26:38.898Z,15.65
2016-12-25T11:27:49.915Z,15.38
2016-12-25T11:29:00.480Z,15.34
2016-12-25T11:30:11.390Z,15.29
2016-12-25T11:31:22.635Z,15.14
2016-12-25T11:32:33.548Z,15.27
2016-12-25T11:33:44.465Z,15.06
2016-12-25T11:34:55.238Z,14.98
2016-12-25T11:36:05.924Z,14.92
2016-12-25T11:37:16.197Z,14.91
2016-12-25T11:38:26.914Z,14.98
2016-12-25T11:39:37.823Z,15.1
2016-12-25T11:40:48.401Z,15.06
2016-12-25T11:41:58.954Z,15.19
2016-12-25T11:43:09.907Z,15.25
2016-12-25T11:44:20.472Z,15.32
2016-12-25T11:45:31.049Z,15.28
2016-12-25T11:46:41.278Z,15.32
2016-12-25T11:47:51.832Z,15.36
2016-12-25T11:49:02.797Z,15.43
2016-12-25T11:50:13.694Z,15.43
2016-12-25T11:51:24.608Z,15.46
2016-12-25T11:52:35.172Z,15.53
2016-12-25T11:53:45.733Z,15.5
2016-12-25T11:54:56.691Z,15.53
2016-12-25T11:56:07.612Z,15.51
2016-12-25T11:57:18.526Z,15.59
2016-12-25T11:58:28.747Z,15.64
2016-12-25T11:59:39.660Z,15.67
2016-12-25T12:00:50.277Z,15.65
2016-12-25T12:02:00.850Z,15.68
2016-12-25T12:03:11.791Z,15.64
2016-12-25T12:04:22.361Z,15.69
2016-12-25T12:05:33.270Z,15.74
2016-12-25T12:06:43.883Z,15.74
2016-12-25T12:07:54.784Z,15.86
2016-12-25T12:09:05.693Z,15.75
2016-12-25T12:10:16.259Z,15.76
2016-12-25T12:11:27.172Z,15.75
2016-12-25T12:12:38.129Z,15.8
2016-12-25T12:13:49.034Z,15.8
2016-12-25T12:14:59.599Z,15.75
2016-12-25T12:16:10.509Z,15.74
2016-12-25T12:17:21.078Z,15.69
2016-12-25T12:18:31.699Z,15.89
2016-12-25T12:19:42.256Z,15.89
2016-12-25T12:20:53.169Z,15.78
2016-12-25T12:22:03.735Z,15.82
2016-12-25T12:23:14.664Z,15.83
2016-12-25T12:24:25.277Z,15.84
2016-12-25T12:25:36.186Z,15.89
2016-12-25T12:26:47.103Z,15.92
2016-12-25T12:27:58.040Z,15.89
2016-12-25T12:29:08.614Z,15.84
2016-12-25T12:30:19.559Z,15.9
2016-12-25T12:31:30.132Z,15.87
2016-12-25T12:32:41.042Z,15.89
2016-12-25T12:33:51.606Z,15.87
2016-12-25T12:35:02.516Z,15.94
2016-12-25T12:36:13.473Z,15.97
2016-12-25T12:37:24.383Z,15.97
2016-12-25T12:38:35.299Z,15.92
2016-12-25T12:39:46.220Z,15.84
2016-12-25T12:40:56.801Z,15.96
2016-12-25T12:42:07.430Z,15.93
2016-12-25T12:43:18.003Z,15.9
2016-12-25T12:44:28.908Z,15.9
2016-12-25T12:45:39.477Z,15.92
2016-12-25T12:46:50.386Z,15.96
2016-12-25T12:48:01.351Z,15.94
2016-12-25T12:49:11.954Z,15.94
2016-12-25T12:50:22.517Z,15.96
2016-12-25T12:51:33.086Z,15.86
2016-12-25T12:52:44.003Z,15.94
2016-12-25T12:53:54.616Z,15.92
2016-12-25T12:55:05.193Z,16
2016-12-25T12:56:16.110Z,16.08
2016-12-25T12:57:27.019Z,16.05
2016-12-25T12:58:37.924Z,16.08
2016-12-25T12:59:48.541Z,16.02
2016-12-25T13:00:59.446Z,16.04
2016-12-25T13:02:10.043Z,16.04
2016-12-25T13:03:20.948Z,16.12
2016-12-25T13:04:31.173Z,16.11
2016-12-25T13:05:41.787Z,16.11
2016-12-25T13:06:52.692Z,16.12
2016-12-25T13:08:03.257Z,16.17
2016-12-25T13:09:14.162Z,16.07
2016-12-25T13:10:24.719Z,16.12
2016-12-25T13:11:35.372Z,16.17
2016-12-25T13:12:45.969Z,16.07
2016-12-25T13:13:56.870Z,16.08
2016-12-25T13:15:07.787Z,16.09
2016-12-25T13:16:18.696Z,16.11
2016-12-25T13:17:29.658Z,16.17
2016-12-25T13:18:40.575Z,16.07
2016-12-25T13:19:51.140Z,16.09
2016-12-25T13:21:01.713Z,16.07
2016-12-25T13:22:12.286Z,16.05
2016-12-25T13:23:23.235Z,16.12
2016-12-25T13:24:34.156Z,16.12
2016-12-25T13:25:44.717Z,16.11
2016-12-25T13:26:55.295Z,16.12
2016-12-25T13:28:05.855Z,16.08
2016-12-25T13:29:16.817Z,16.05
2016-12-25T13:30:27.734Z,16.07
2016-12-25T13:31:38.647Z,16.09
2016-12-25T13:32:49.560Z,16.04
2016-12-25T13:34:00.473Z,16.07
2016-12-25T13:35:11.434Z,16.05
2016-12-25T13:36:22.344Z,16.02
2016-12-25T13:37:33.257Z,16.11
2016-12-25T13:38:44.170Z,16.07
2016-12-25T13:39:54.731Z,16.11
2016-12-25T13:41:05.688Z,16.12
2016-12-25T13:42:16.605Z,16.09
2016-12-25T13:43:26.827Z,16.11
2016-12-25T13:44:37.740Z,16
2016-12-25T13:45:48.301Z,16.09
2016-12-25T13:46:59.302Z,16.09
2016-12-25T13:48:10.220Z,16.08
2016-12-25T13:49:20.781Z,16.07
2016-12-25T13:50:31.694Z,16.08
2016-12-25T13:51:42.263Z,16.09
2016-12-25T13:52:52.892Z,16.04
2016-12-25T13:54:03.809Z,16
2016-12-25T13:55:14.727Z,16.07
2016-12-25T13:56:25.628Z,16
2016-12-25T13:57:36.197Z,15.97
2016-12-25T13:58:47.154Z,16
2016-12-25T13:59:57.727Z,16.01
2016-12-25T14:01:08.292Z,15.97
2016-12-25T14:02:18.850Z,15.96
2016-12-25T14:03:29.415Z,15.93
2016-12-25T14:04:40.052Z,16.01
2016-12-25T14:05:50.617Z,16.01
2016-12-25T14:07:01.178Z,16.02
2016-12-25T14:08:11.771Z,16
2016-12-25T14:09:22.681Z,16
2016-12-25T14:10:33.848Z,16
2016-12-25T14:11:44.755Z,16.01
2016-12-25T14:12:55.316Z,15.97
2016-12-25T14:14:06.246Z,16
2016-12-25T14:15:16.811Z,15.97
2016-12-25T14:16:27.432Z,15.94
2016-12-25T14:17:38.009Z,15.9
2016-12-25T14:18:48.914Z,15.94
2016-12-25T14:19:59.483Z,15.97
2016-12-25T14:21:10.397Z,15.93
2016-12-25T14:22:21.018Z,15.97
2016-12-25T14:23:31.587Z,15.93
2016-12-25T14:24:42.500Z,16.02
2016-12-25T14:25:53.064Z,15.94
2016-12-25T14:27:03.982Z,15.97
2016-12-25T14:28:14.932Z,15.84
2016-12-25T14:29:25.853Z,16
2016-12-25T14:30:36.406Z,15.94
2016-12-25T14:31:47.307Z,15.94
2016-12-25T14:32:58.213Z,15.94
2016-12-25T14:34:09.181Z,15.93
2016-12-25T14:35:19.739Z,15.93
2016-12-25T14:36:30.656Z,15.93
2016-12-25T14:37:41.569Z,15.9
2016-12-25T14:38:52.130Z,15.89
2016-12-25T14:40:02.740Z,15.84
2016-12-25T14:41:13.309Z,15.86
2016-12-25T14:42:24.218Z,15.92
2016-12-25T14:43:34.444Z,15.86
2016-12-25T14:44:45.356Z,15.87
2016-12-25T14:45:55.970Z,15.9
2016-12-25T14:47:06.879Z,15.93
2016-12-25T14:48:17.100Z,15.82
2016-12-25T14:49:28.005Z,15.93
2016-12-25T14:50:38.938Z,15.76
2016-12-25T14:51:49.892Z,15.75
2016-12-25T14:53:00.805Z,15.78
2016-12-25T14:54:11.406Z,15.8
2016-12-25T14:55:21.971Z,15.78
2016-12-25T14:56:32.877Z,15.82
2016-12-25T14:57:43.858Z,15.82
2016-12-25T14:58:54.426Z,15.84
2016-12-25T15:00:04.992Z,15.75
2016-12-25T15:01:15.557Z,15.72
2016-12-25T15:02:26.131Z,15.75
2016-12-25T15:03:37.084Z,15.76
2016-12-25T15:04:47.649Z,15.76
2016-12-25T15:05:58.218Z,15.74
2016-12-25T15:07:09.124Z,15.76
2016-12-25T15:08:20.057Z,15.8
2016-12-25T15:09:31.022Z,15.78
2016-12-25T15:10:41.935Z,15.83
2016-12-25T15:11:52.500Z,15.8
2016-12-25T15:13:03.069Z,15.8
2016-12-25T15:14:13.975Z,15.82